createdAt,value
2023-03-17T00:00:30.031Z,2.10
2023-03-17T00:02:59.652Z,1.80
2023-03-17T00:05:32.695Z,2.17
2023-03-17T00:08:06.203Z,2.00
2023-03-17T00:10:34.572Z,1.67
2023-03-17T00:13:03.740Z,2.10
2023-03-17T00:15:31.947Z,2.20
2023-03-17T00:18:00.153Z,1.80
2023-03-17T00:20:32.486Z,1.93
2023-03-17T00:23:04.231Z,2.23
2023-03-17T00:25:36.128Z,1.80
2023-03-17T00:28:04.779Z,2.13
2023-03-17T00:30:33.011Z,1.67
2023-03-17T00:33:01.349Z,2.13
2023-03-17T00:35:30.543Z,2.07
2023-03-17T00:37:59.464Z,2.33
2023-03-17T00:40:31.074Z,2.03
2023-03-17T00:43:02.949Z,3.00
2023-03-17T00:45:31.296Z,2.00
2023-03-17T00:47:59.885Z,2.17
2023-03-17T00:50:29.780Z,1.90
2023-03-17T00:52:58.991Z,2.17
2023-03-17T00:55:28.654Z,2.50
2023-03-17T00:57:56.956Z,1.97
2023-03-17T01:00:29.877Z,2.03
2023-03-17T01:02:59.011Z,2.13
2023-03-17T01:05:27.453Z,2.10
2023-03-17T01:07:58.751Z,2.27
2023-03-17T01:10:29.134Z,2.50
2023-03-17T01:12:59.237Z,2.43
2023-03-17T01:15:31.471Z,2.03
2023-03-17T01:18:00.210Z,2.33
2023-03-17T01:20:31.874Z,2.13
2023-03-17T01:23:01.430Z,2.03
2023-03-17T01:25:29.808Z,2.20
2023-03-17T01:27:59.217Z,1.80
2023-03-17T01:30:31.332Z,2.47
2023-03-17T01:33:00.935Z,1.97
2023-03-17T01:35:31.427Z,2.30
2023-03-17T01:38:00.589Z,2.03
2023-03-17T01:40:32.281Z,1.60
2023-03-17T01:43:14.514Z,2.17
2023-03-17T01:46:27.569Z,2.00
2023-03-17T01:49:07.783Z,1.80
2023-03-17T01:51:40.231Z,2.00
2023-03-17T01:54:12.156Z,2.90
2023-03-17T01:56:43.193Z,2.30
2023-03-17T01:59:15.796Z,2.20
2023-03-17T02:01:48.502Z,2.17
2023-03-17T02:04:21.845Z,2.00
2023-03-17T02:06:58.035Z,2.47
2023-03-17T02:09:28.944Z,2.50
2023-03-17T02:11:59.767Z,2.57
2023-03-17T02:14:28.660Z,2.07
2023-03-17T02:16:57.402Z,2.47
2023-03-17T02:19:27.211Z,2.03
2023-03-17T02:21:59.013Z,3.50
2023-03-17T02:24:33.271Z,2.17
2023-03-17T02:27:06.661Z,2.27
2023-03-17T02:29:37.780Z,1.80
2023-03-17T02:32:06.762Z,1.90
2023-03-17T02:34:35.152Z,2.57
2023-03-17T02:37:05.624Z,2.40
2023-03-17T02:39:33.908Z,2.23
2023-03-17T02:42:02.126Z,2.57
2023-03-17T02:44:30.461Z,2.30
2023-03-17T02:46:58.692Z,2.23
2023-03-17T02:49:28.130Z,2.10
2023-03-17T02:51:57.145Z,2.60
2023-03-17T02:54:27.176Z,2.30
2023-03-17T02:56:55.505Z,2.50
2023-03-17T02:59:23.859Z,2.70
2023-03-17T03:01:52.130Z,2.83
2023-03-17T03:04:21.141Z,2.10
2023-03-17T03:06:49.772Z,2.20
2023-03-17T03:09:18.985Z,2.30
2023-03-17T03:11:48.509Z,2.60
2023-03-17T03:14:17.017Z,2.40
2023-03-17T03:16:45.593Z,2.17
2023-03-17T03:19:13.892Z,2.40
2023-03-17T03:21:42.051Z,2.57
2023-03-17T03:24:11.041Z,2.70
2023-03-17T03:26:39.504Z,2.20
2023-03-17T03:29:09.766Z,3.00
2023-03-17T03:31:38.065Z,2.20
2023-03-17T03:34:06.382Z,2.10
2023-03-17T03:36:34.698Z,2.10
2023-03-17T03:39:03.202Z,2.63
2023-03-17T03:41:31.588Z,2.27
2023-03-17T03:43:59.891Z,2.37
2023-03-17T03:46:29.610Z,2.13
2023-03-17T03:48:57.993Z,2.43
2023-03-17T03:51:26.448Z,2.77
2023-03-17T03:53:54.724Z,1.93
2023-03-17T03:56:22.978Z,2.40
2023-03-17T03:58:51.251Z,2.40
2023-03-17T04:01:19.877Z,2.20
2023-03-17T04:03:49.476Z,2.17
2023-03-17T04:06:18.075Z,2.40
2023-03-17T04:08:46.278Z,2.47
2023-03-17T04:11:14.652Z,2.57
2023-03-17T04:13:43.025Z,2.80
2023-03-17T04:16:11.228Z,2.30
2023-03-17T04:18:39.709Z,2.30
2023-03-17T04:21:09.524Z,2.63
2023-03-17T04:23:37.885Z,2.37
2023-03-17T04:26:06.470Z,2.87
2023-03-17T04:28:34.691Z,2.40
2023-03-17T04:31:02.867Z,2.83
2023-03-17T04:33:31.207Z,2.50
2023-03-17T04:35:59.377Z,2.43
2023-03-17T04:38:28.973Z,1.90
2023-03-17T04:40:57.212Z,2.50
2023-03-17T04:43:25.739Z,2.40
2023-03-17T04:45:53.975Z,2.90
2023-03-17T04:48:22.226Z,2.70
2023-03-17T04:50:51.324Z,2.73
2023-03-17T04:53:19.736Z,2.70
2023-03-17T04:55:49.415Z,2.90
2023-03-17T04:58:30.107Z,3.03
2023-03-17T05:00:59.010Z,2.80
2023-03-17T05:03:28.487Z,2.30
2023-03-17T05:05:57.459Z,2.77
2023-03-17T05:08:26.098Z,2.63
2023-03-17T05:10:55.920Z,2.87
2023-03-17T05:13:24.985Z,2.77
2023-03-17T05:15:54.898Z,2.77
2023-03-17T05:18:24.780Z,2.70
2023-03-17T05:20:53.610Z,3.10
2023-03-17T05:23:22.344Z,2.90
2023-03-17T05:25:50.984Z,3.10
2023-03-17T05:28:20.858Z,2.63
2023-03-17T05:30:50.127Z,2.67
2023-03-17T05:33:18.824Z,2.80
2023-03-17T05:35:47.554Z,2.50
2023-03-17T05:38:16.834Z,2.70
2023-03-17T05:40:48.343Z,2.60
2023-03-17T05:43:16.808Z,3.00
2023-03-17T05:45:47.257Z,3.17
2023-03-17T05:48:15.611Z,2.90
2023-03-17T05:50:44.066Z,3.00
2023-03-17T05:53:12.290Z,2.73
2023-03-17T05:55:40.593Z,2.47
2023-03-17T05:58:09.535Z,2.40
2023-03-17T06:00:38.824Z,2.90
2023-03-17T06:03:08.744Z,2.33
2023-03-17T06:05:37.462Z,2.60
2023-03-17T06:08:06.120Z,2.80
2023-03-17T06:10:34.812Z,2.63
2023-03-17T06:13:04.516Z,2.90
2023-03-17T06:15:34.070Z,2.90
2023-03-17T06:18:02.704Z,2.90
2023-03-17T06:20:32.525Z,3.37
2023-03-17T06:23:04.991Z,2.70
2023-03-17T06:25:34.677Z,2.33
2023-03-17T06:28:07.366Z,2.73
2023-03-17T06:30:38.743Z,2.80
2023-03-17T06:33:08.603Z,2.80
2023-03-17T06:35:38.659Z,2.30
2023-03-17T06:38:06.990Z,2.73
2023-03-17T06:40:35.248Z,2.43
2023-03-17T06:43:03.583Z,2.40
2023-03-17T06:45:33.735Z,2.67
2023-03-17T06:48:02.337Z,2.50
2023-03-17T06:50:30.804Z,2.80
2023-03-17T06:53:00.428Z,2.73
2023-03-17T06:55:29.321Z,3.07
2023-03-17T06:57:58.923Z,2.77
2023-03-17T07:00:27.500Z,2.80
2023-03-17T07:02:55.756Z,3.13
2023-03-17T07:05:24.077Z,2.50
2023-03-17T07:07:52.280Z,3.17
2023-03-17T07:10:23.138Z,2.77
2023-03-17T07:12:51.377Z,2.00
2023-03-17T07:15:20.776Z,2.73
2023-03-17T07:17:48.987Z,2.70
2023-03-17T07:20:17.907Z,2.20
2023-03-17T07:22:46.473Z,2.73
2023-03-17T07:25:15.247Z,2.40
2023-03-17T07:27:44.912Z,2.80
2023-03-17T07:30:15.506Z,2.40
2023-03-17T07:32:43.897Z,2.60
2023-03-17T07:35:12.580Z,2.43
2023-03-17T07:37:40.822Z,3.00
2023-03-17T07:40:10.868Z,2.53
2023-03-17T07:42:39.087Z,2.90
2023-03-17T07:45:09.934Z,2.43
2023-03-17T07:47:39.209Z,2.90
2023-03-17T07:50:07.945Z,2.60
2023-03-17T07:52:36.401Z,2.80
2023-03-17T07:55:05.051Z,2.70
2023-03-17T07:57:33.471Z,2.63
2023-03-17T08:00:01.772Z,3.00
2023-03-17T08:02:31.663Z,2.70
2023-03-17T08:05:00.174Z,3.13
2023-03-17T08:07:28.324Z,2.70
2023-03-17T08:09:57.431Z,2.80
2023-03-17T08:12:25.712Z,2.20
2023-03-17T08:14:55.305Z,2.63
2023-03-17T08:17:26.886Z,2.80
2023-03-17T08:19:56.978Z,2.77
2023-03-17T08:22:26.652Z,2.40
2023-03-17T08:24:55.605Z,3.13
2023-03-17T08:27:23.881Z,3.20
2023-03-17T08:29:52.638Z,2.63
2023-03-17T08:32:20.825Z,2.77
2023-03-17T08:34:49.385Z,2.60
2023-03-17T08:37:18.971Z,2.83
2023-03-17T08:39:47.145Z,2.50
2023-03-17T08:42:15.572Z,2.37
2023-03-17T08:44:44.250Z,2.13
2023-03-17T08:47:12.490Z,2.20
2023-03-17T08:49:41.068Z,2.07
2023-03-17T08:52:09.924Z,2.10
2023-03-17T08:54:39.571Z,2.23
2023-03-17T08:57:07.861Z,2.50
2023-03-17T08:59:37.163Z,2.30
2023-03-17T09:02:05.652Z,2.17
2023-03-17T09:04:33.961Z,2.20
2023-03-17T09:07:04.237Z,1.97
2023-03-17T09:09:33.497Z,1.73
2023-03-17T09:12:04.376Z,1.77
2023-03-17T09:14:42.623Z,1.83
2023-03-17T09:17:11.681Z,2.63
2023-03-17T09:19:40.364Z,1.97
2023-03-17T09:22:08.949Z,2.10
2023-03-17T09:24:37.246Z,1.97
2023-03-17T09:27:07.022Z,1.80
2023-03-17T09:29:35.500Z,1.90
2023-03-17T09:32:03.725Z,1.83
2023-03-17T09:34:32.272Z,2.00
2023-03-17T09:37:00.728Z,1.80
2023-03-17T09:39:29.251Z,2.40
2023-03-17T09:42:18.524Z,1.93
2023-03-17T09:45:01.955Z,1.80
2023-03-17T09:47:53.975Z,2.10
2023-03-17T09:50:26.604Z,2.30
2023-03-17T09:52:57.204Z,2.27
2023-03-17T09:55:28.708Z,1.77
2023-03-17T09:58:00.703Z,1.80
2023-03-17T10:00:31.136Z,1.43
2023-03-17T10:03:01.462Z,1.60
2023-03-17T10:05:32.128Z,1.73
2023-03-17T10:08:19.028Z,1.70
2023-03-17T10:11:02.831Z,1.60
2023-03-17T10:13:47.290Z,1.97
2023-03-17T10:16:19.083Z,1.93
2023-03-17T10:18:54.181Z,2.20
2023-03-17T10:21:26.573Z,1.97
2023-03-17T10:23:56.247Z,1.70
2023-03-17T10:26:30.982Z,1.97
2023-03-17T10:29:04.140Z,1.90
2023-03-17T10:31:35.345Z,2.10
2023-03-17T10:34:14.536Z,1.70
2023-03-17T10:36:45.451Z,1.93
2023-03-17T10:39:16.348Z,1.97
2023-03-17T10:41:53.809Z,2.00
2023-03-17T10:44:30.663Z,1.97
2023-03-17T10:46:59.278Z,2.00
2023-03-17T10:49:27.666Z,2.10
2023-03-17T10:51:55.881Z,1.80
2023-03-17T10:54:26.444Z,2.20
2023-03-17T10:57:02.126Z,2.00
2023-03-17T10:59:38.055Z,2.37
2023-03-17T11:02:20.090Z,1.87
2023-03-17T11:04:48.584Z,2.13
2023-03-17T11:07:19.561Z,1.80
2023-03-17T11:09:50.617Z,1.60
2023-03-17T11:12:26.513Z,2.33
2023-03-17T11:15:03.300Z,1.80
2023-03-17T11:17:48.752Z,2.07
2023-03-17T11:20:47.178Z,1.73
2023-03-17T11:23:38.646Z,2.30
2023-03-17T11:26:19.353Z,1.77
2023-03-17T11:28:55.985Z,1.90
2023-03-17T11:31:32.422Z,2.10
2023-03-17T11:34:08.729Z,2.03
2023-03-17T11:36:46.917Z,2.20
2023-03-17T11:39:18.021Z,2.03
2023-03-17T11:42:09.117Z,1.83
2023-03-17T11:44:55.197Z,2.17
2023-03-17T11:47:37.070Z,1.80
2023-03-17T11:50:17.618Z,1.93
2023-03-17T11:52:58.641Z,1.97
2023-03-17T11:55:32.566Z,1.87
2023-03-17T11:58:04.342Z,1.90
2023-03-17T12:00:35.076Z,1.63
2023-03-17T12:03:13.542Z,2.03
2023-03-17T12:05:43.129Z,1.80
2023-03-17T12:08:16.248Z,1.80
2023-03-17T12:10:49.408Z,1.97
2023-03-17T12:13:23.048Z,1.47
2023-03-17T12:15:54.018Z,1.73
2023-03-17T12:18:30.599Z,1.97
2023-03-17T12:21:04.324Z,2.30
2023-03-17T12:23:39.282Z,2.00
2023-03-17T12:26:12.899Z,1.30
2023-03-17T12:28:46.350Z,1.70
2023-03-17T12:31:21.467Z,2.13
2023-03-17T12:33:58.718Z,1.53
2023-03-17T12:36:28.042Z,1.80
2023-03-17T12:39:01.787Z,2.13
2023-03-17T12:41:50.909Z,2.63
2023-03-17T12:44:33.081Z,1.60
2023-03-17T12:47:20.899Z,1.90
2023-03-17T12:50:28.419Z,1.73
2023-03-17T12:53:26.437Z,1.73
2023-03-17T12:55:58.942Z,1.70
2023-03-17T12:58:32.244Z,1.67
2023-03-17T13:01:10.322Z,1.73
2023-03-17T13:03:57.383Z,1.60
2023-03-17T13:06:30.542Z,1.50
2023-03-17T13:09:32.036Z,2.00
2023-03-17T13:12:04.292Z,1.40
2023-03-17T13:14:43.535Z,1.30
2023-03-17T13:17:40.152Z,1.83
2023-03-17T13:20:20.329Z,1.83
2023-03-17T13:23:18.482Z,1.90
2023-03-17T13:25:54.876Z,1.60
2023-03-17T13:28:41.418Z,1.40
2023-03-17T13:31:16.616Z,2.33
2023-03-17T13:33:47.385Z,1.90
2023-03-17T13:36:40.333Z,1.30
2023-03-17T13:39:52.141Z,1.43
2023-03-17T13:42:34.600Z,1.30
2023-03-17T13:45:21.963Z,1.63
2023-03-17T13:47:52.829Z,1.37
2023-03-17T13:50:25.788Z,1.87
2023-03-17T13:52:58.032Z,2.33
2023-03-17T13:55:39.481Z,1.83
2023-03-17T13:58:26.134Z,1.77
2023-03-17T14:01:02.581Z,1.70
2023-03-17T14:03:36.556Z,2.03
2023-03-17T14:06:07.972Z,1.80
2023-03-17T14:08:37.693Z,1.93
2023-03-17T14:11:21.360Z,1.90
2023-03-17T14:13:57.368Z,1.80
2023-03-17T14:16:30.926Z,1.77
2023-03-17T14:19:11.294Z,1.60
2023-03-17T14:21:39.820Z,1.43
2023-03-17T14:24:21.587Z,1.37
2023-03-17T14:26:51.112Z,1.53
2023-03-17T14:29:26.186Z,2.13
2023-03-17T14:32:04.091Z,1.77
2023-03-17T14:34:33.252Z,1.50
2023-03-17T14:37:04.306Z,1.77
2023-03-17T14:39:32.737Z,1.40
2023-03-17T14:42:03.039Z,1.57
2023-03-17T14:44:39.428Z,2.00
2023-03-17T14:47:15.875Z,1.70
2023-03-17T14:49:44.646Z,1.60
2023-03-17T14:52:22.015Z,2.13
2023-03-17T14:54:53.494Z,1.90
2023-03-17T14:57:24.609Z,1.57
2023-03-17T15:00:01.989Z,1.83
2023-03-17T15:02:35.525Z,1.80
2023-03-17T15:05:09.641Z,1.97
2023-03-17T15:07:40.386Z,1.70
2023-03-17T15:10:17.098Z,2.10
2023-03-17T15:12:47.170Z,1.80
2023-03-17T15:15:25.759Z,1.73
2023-03-17T15:17:56.917Z,2.63
2023-03-17T15:20:25.622Z,1.60
2023-03-17T15:22:59.907Z,1.33
2023-03-17T15:25:35.290Z,2.20
2023-03-17T15:28:03.597Z,2.07
2023-03-17T15:30:46.214Z,1.60
2023-03-17T15:33:22.190Z,1.60
2023-03-17T15:35:50.940Z,1.20
2023-03-17T15:38:19.170Z,1.60
2023-03-17T15:40:47.398Z,2.03
2023-03-17T15:43:16.397Z,1.70
2023-03-17T15:45:47.330Z,1.60
2023-03-17T15:48:21.228Z,1.70
2023-03-17T15:50:50.846Z,1.50
2023-03-17T15:53:19.962Z,1.47
2023-03-17T15:55:48.580Z,2.20
2023-03-17T15:58:16.791Z,1.60
2023-03-17T16:00:56.942Z,1.50
2023-03-17T16:03:30.616Z,1.47
2023-03-17T16:06:02.638Z,1.63
2023-03-17T16:08:31.367Z,1.80
2023-03-17T16:10:59.679Z,1.40
2023-03-17T16:13:27.867Z,1.63
2023-03-17T16:15:59.883Z,1.97
2023-03-17T16:18:33.884Z,1.80
2023-03-17T16:21:02.774Z,2.50
2023-03-17T16:23:34.820Z,1.90
2023-03-17T16:26:14.822Z,2.00
2023-03-17T16:28:45.902Z,1.93
2023-03-17T16:31:21.646Z,1.70
2023-03-17T16:33:51.526Z,1.83
2023-03-17T16:36:22.605Z,2.27
2023-03-17T16:38:51.220Z,1.70
2023-03-17T16:41:22.911Z,1.50
2023-03-17T16:43:53.694Z,2.23
2023-03-17T16:46:23.882Z,1.40
2023-03-17T16:48:52.316Z,2.00
2023-03-17T16:51:20.588Z,1.90
2023-03-17T16:53:49.139Z,1.77
2023-03-17T16:56:20.820Z,2.23
2023-03-17T16:58:49.586Z,2.07
2023-03-17T17:01:20.915Z,1.83
2023-03-17T17:03:51.064Z,2.30
2023-03-17T17:06:20.593Z,1.80
2023-03-17T17:08:49.718Z,2.00
2023-03-17T17:11:19.639Z,1.90
2023-03-17T17:13:49.493Z,2.10
2023-03-17T17:16:23.253Z,2.37
2023-03-17T17:18:52.839Z,2.40
2023-03-17T17:21:21.193Z,2.00
2023-03-17T17:23:52.339Z,2.20
2023-03-17T17:26:21.399Z,2.27
2023-03-17T17:28:49.936Z,2.07
2023-03-17T17:31:18.300Z,2.50
2023-03-17T17:33:46.615Z,2.47
2023-03-17T17:36:18.284Z,1.40
2023-03-17T17:38:48.671Z,2.33
2023-03-17T17:41:21.211Z,2.20
2023-03-17T17:43:49.932Z,1.70
2023-03-17T17:46:19.970Z,2.30
2023-03-17T17:48:48.958Z,2.37
2023-03-17T17:51:18.639Z,2.20
2023-03-17T17:53:47.114Z,2.40
2023-03-17T17:56:16.369Z,1.80
2023-03-17T17:58:45.176Z,2.60
2023-03-17T18:01:16.757Z,2.50
2023-03-17T18:03:45.200Z,2.50
2023-03-17T18:06:13.947Z,1.80
2023-03-17T18:08:44.274Z,2.20
2023-03-17T18:11:12.768Z,2.03
2023-03-17T18:13:40.981Z,2.30
2023-03-17T18:16:10.754Z,2.53
2023-03-17T18:18:42.228Z,2.60
2023-03-17T18:21:11.476Z,2.20
2023-03-17T18:23:46.682Z,2.00
2023-03-17T18:26:17.737Z,2.53
2023-03-17T18:28:47.689Z,1.90
2023-03-17T18:31:19.742Z,2.97
2023-03-17T18:33:49.439Z,2.90
2023-03-17T18:36:17.988Z,2.53
2023-03-17T18:38:46.253Z,2.27
2023-03-17T18:41:16.023Z,2.60
2023-03-17T18:43:44.864Z,2.40
2023-03-17T18:46:13.730Z,2.50
2023-03-17T18:48:42.371Z,2.37
2023-03-17T18:51:11.128Z,2.20
2023-03-17T18:53:39.399Z,2.23
2023-03-17T18:56:08.344Z,2.43
2023-03-17T18:58:38.200Z,2.27
2023-03-17T19:01:07.634Z,2.50
2023-03-17T19:03:36.083Z,2.20
2023-03-17T19:06:12.732Z,2.27
2023-03-17T19:08:41.481Z,2.47
2023-03-17T19:11:11.016Z,2.20
2023-03-17T19:13:41.953Z,2.47
2023-03-17T19:16:10.575Z,2.23
2023-03-17T19:18:41.933Z,2.30
2023-03-17T19:21:11.809Z,2.70
2023-03-17T19:23:41.419Z,1.83
2023-03-17T19:26:10.358Z,2.20
2023-03-17T19:28:40.108Z,2.40
2023-03-17T19:31:09.283Z,2.20
2023-03-17T19:33:38.102Z,2.10
2023-03-17T19:36:11.266Z,2.07
2023-03-17T19:38:40.292Z,2.20
2023-03-17T19:41:08.963Z,2.63
2023-03-17T19:43:41.257Z,2.20
2023-03-17T19:46:12.399Z,2.20
2023-03-17T19:48:42.790Z,1.70
2023-03-17T19:51:11.364Z,2.20
2023-03-17T19:53:39.662Z,2.70
2023-03-17T19:56:08.515Z,2.60
2023-03-17T19:58:36.995Z,2.80
2023-03-17T20:01:06.860Z,2.40
2023-03-17T20:03:39.404Z,2.40
2023-03-17T20:06:07.684Z,2.70
2023-03-17T20:08:36.669Z,2.03
2023-03-17T20:11:05.905Z,2.50
2023-03-17T20:13:35.157Z,2.03
2023-03-17T20:16:04.713Z,2.33
2023-03-17T20:18:33.696Z,2.10
2023-03-17T20:21:05.504Z,1.90
2023-03-17T20:23:34.380Z,2.27
2023-03-17T20:26:03.552Z,2.80
2023-03-17T20:28:32.488Z,3.20
2023-03-17T20:31:03.000Z,2.73
2023-03-17T20:33:33.238Z,3.10
2023-03-17T20:36:03.150Z,2.47
2023-03-17T20:38:33.383Z,3.00
2023-03-17T20:41:09.558Z,2.60
2023-03-17T20:43:38.445Z,3.07
2023-03-17T20:46:08.939Z,3.83
2023-03-17T20:48:37.730Z,4.10
2023-03-17T20:51:09.359Z,4.97
2023-03-17T20:53:37.616Z,4.23
2023-03-17T20:56:06.581Z,4.03
2023-03-17T20:58:35.180Z,3.17
2023-03-17T21:01:03.382Z,3.60
2023-03-17T21:03:32.326Z,2.87
2023-03-17T21:06:01.323Z,2.90
2023-03-17T21:08:31.225Z,3.37
2023-03-17T21:10:59.476Z,2.83
2023-03-17T21:13:27.768Z,2.33
2023-03-17T21:15:56.701Z,2.83
2023-03-17T21:18:25.010Z,2.80
2023-03-17T21:20:53.256Z,2.90
2023-03-17T21:23:21.819Z,2.57
2023-03-17T21:25:55.161Z,3.40
2023-03-17T21:28:24.038Z,2.83
2023-03-17T21:30:52.748Z,2.57
2023-03-17T21:33:21.391Z,2.90
2023-03-17T21:35:49.710Z,2.90
2023-03-17T21:38:17.909Z,3.00
2023-03-17T21:40:46.588Z,3.27
2023-03-17T21:43:16.478Z,3.43
2023-03-17T21:45:45.117Z,3.47
2023-03-17T21:48:13.596Z,4.20
2023-03-17T21:50:41.800Z,3.67
2023-03-17T21:53:11.044Z,4.03
2023-03-17T21:55:39.575Z,3.73
2023-03-17T21:58:08.085Z,3.10
2023-03-17T22:00:45.077Z,3.63
2023-03-17T22:03:14.558Z,2.57
2023-03-17T22:05:44.433Z,2.77
2023-03-17T22:08:13.019Z,3.23
2023-03-17T22:10:41.245Z,2.70
2023-03-17T22:13:09.585Z,2.60
2023-03-17T22:15:39.310Z,3.43
2023-03-17T22:18:07.479Z,2.53
2023-03-17T22:20:35.884Z,2.73
2023-03-17T22:23:04.179Z,2.70
2023-03-17T22:25:32.414Z,3.20
2023-03-17T22:28:00.685Z,2.90
2023-03-17T22:30:29.158Z,2.73
2023-03-17T22:32:58.945Z,2.80
2023-03-17T22:35:27.175Z,2.23
2023-03-17T22:37:55.381Z,2.90
2023-03-17T22:40:23.671Z,2.90
2023-03-17T22:42:51.944Z,3.40
2023-03-17T22:45:20.951Z,3.10
2023-03-17T22:47:49.287Z,2.93
2023-03-17T22:50:19.937Z,3.20
2023-03-17T22:52:48.480Z,3.37
2023-03-17T22:55:16.722Z,3.33
2023-03-17T22:57:45.389Z,3.30
2023-03-17T23:00:17.055Z,2.57
2023-03-17T23:02:46.023Z,2.63
2023-03-17T23:05:15.937Z,3.37
2023-03-17T23:07:50.671Z,3.90
2023-03-17T23:10:22.891Z,3.90
2023-03-17T23:12:51.528Z,2.80
2023-03-17T23:15:21.022Z,3.73
2023-03-17T23:17:49.426Z,3.07
2023-03-17T23:20:18.936Z,2.90
2023-03-17T23:22:48.520Z,2.80
2023-03-17T23:25:17.053Z,2.97
2023-03-17T23:27:45.373Z,2.83
2023-03-17T23:30:15.497Z,2.70
2023-03-17T23:32:43.955Z,2.10
2023-03-17T23:35:13.636Z,2.70
2023-03-17T23:37:41.980Z,2.97
2023-03-17T23:40:15.505Z,2.40
2023-03-17T23:42:44.018Z,2.87
2023-03-17T23:45:15.319Z,3.27
2023-03-17T23:47:44.188Z,3.47
2023-03-17T23:50:13.398Z,3.50
2023-03-17T23:52:42.422Z,3.50
2023-03-17T23:55:12.994Z,3.83
2023-03-17T23:57:41.408Z,3.20
